Time;durP1;ratioP1;P1;durP2;ratioP2;P2;SDS_P1;SDS_P2;PMS_P1;PMS_P2;Temp;Humidity;BMP_temperature;BMP_pressure;BME280_temperature;BME280_humidity;BME280_pressure;Samples;Min_cycle;Max_cycle;Signal;HPM_P1;HPM_P2
2024/04/14 00:00:21;;;;;;;11.52;4.43;;;;;;;;;;5571396;25;20010;-88
2024/04/14 00:02:47;;;;;;;11.32;3.60;;;;;;;;;;5604657;25;20000;-88
2024/04/14 00:05:33;;;;;;;13.18;4.10;;;;;;;;;;5576865;25;20004;-87
2024/04/14 00:08:00;;;;;;;13.85;4.68;;;;;;;;;;5571310;25;20325;-87
2024/04/14 00:10:26;;;;;;;10.30;3.78;;;;;;;;;;5571332;25;20453;-87
2024/04/14 00:12:52;;;;;;;11.52;3.33;;;;;;;;;;5569770;25;20008;-87
2024/04/14 00:15:19;;;;;;;14.43;3.75;;;;;;;;;;5604814;25;20000;-87
2024/04/14 00:17:45;;;;;;;16.95;3.95;;;;;;;;;;5604356;25;20011;-87
2024/04/14 00:20:12;;;;;;;17.98;4.88;;;;;;;;;;5570528;25;20008;-87
2024/04/14 00:22:38;;;;;;;11.45;4.10;;;;;;;;;;5604146;25;20000;-87
2024/04/14 00:25:05;;;;;;;10.27;3.78;;;;;;;;;;5571243;25;20011;-87
2024/04/14 00:27:31;;;;;;;13.80;4.47;;;;;;;;;;5571443;25;20000;-87
2024/04/14 00:29:57;;;;;;;12.95;3.78;;;;;;;;;;5570853;25;20000;-87
2024/04/14 00:32:23;;;;;;;10.60;2.83;;;;;;;;;;5570961;25;20000;-87
2024/04/14 00:34:53;;;;;;;7.97;2.53;;;;;;;;;;5603789;25;20000;-87
2024/04/14 00:37:19;;;;;;;8.30;3.10;;;;;;;;;;5570056;25;20004;-87
2024/04/14 00:39:52;;;;;;;12.48;3.28;;;;;;;;;;5572275;25;20010;-87
2024/04/14 00:42:18;;;;;;;9.20;2.53;;;;;;;;;;5570362;25;20349;-87
2024/04/14 00:44:44;;;;;;;11.93;2.92;;;;;;;;;;5570299;25;20011;-87
2024/04/14 00:47:31;;;;;;;9.07;3.05;;;;;;;;;;5550006;25;20015;-87
2024/04/14 00:49:57;;;;;;;6.90;2.40;;;;;;;;;;5569974;25;20007;-87
2024/04/14 00:52:23;;;;;;;13.40;2.67;;;;;;;;;;5570299;25;20335;-87
2024/04/14 00:54:50;;;;;;;6.97;2.40;;;;;;;;;;5570211;25;20011;-87
2024/04/14 00:57:16;;;;;;;8.30;2.30;;;;;;;;;;5603313;25;20464;-87
2024/04/14 00:59:43;;;;;;;11.05;2.55;;;;;;;;;;5569750;25;20004;-87
2024/04/14 01:02:09;;;;;;;8.52;2.50;;;;;;;;;;5570202;25;20008;-87
2024/04/14 01:04:35;;;;;;;10.38;2.53;;;;;;;;;;5603261;25;20012;-87
2024/04/14 01:07:01;;;;;;;10.88;2.47;;;;;;;;;;5603232;25;20008;-87
2024/04/14 01:09:30;;;;;;;9.48;2.25;;;;;;;;;;5569714;25;20000;-87
2024/04/14 01:11:56;;;;;;;7.70;2.20;;;;;;;;;;5569599;25;20333;-87
2024/04/14 01:14:23;;;;;;;9.40;2.30;;;;;;;;;;5603268;25;20347;-87
2024/04/14 01:16:49;;;;;;;8.98;1.60;;;;;;;;;;5569965;25;19999;-87
2024/04/14 01:19:15;;;;;;;4.78;1.60;;;;;;;;;;5570049;25;20000;-87
2024/04/14 01:21:41;;;;;;;6.55;1.70;;;;;;;;;;5603132;25;20470;-87
2024/04/14 01:24:07;;;;;;;6.53;1.45;;;;;;;;;;5569216;25;20465;-87
2024/04/14 01:26:33;;;;;;;10.73;2.72;;;;;;;;;;5603438;25;20012;-87
2024/04/14 01:29:00;;;;;;;5.72;1.83;;;;;;;;;;5603031;25;20342;-87
2024/04/14 01:31:26;;;;;;;8.27;1.45;;;;;;;;;;5603280;25;20415;-87
2024/04/14 01:33:52;;;;;;;8.95;1.60;;;;;;;;;;5602961;25;20027;-87
2024/04/14 01:36:18;;;;;;;7.43;1.60;;;;;;;;;;5602843;25;20451;-87
2024/04/14 01:38:44;;;;;;;7.18;1.58;;;;;;;;;;5569112;25;20195;-87
2024/04/14 01:41:11;;;;;;;7.07;1.63;;;;;;;;;;5569713;25;19999;-87
2024/04/14 01:43:57;;;;;;;10.75;1.75;;;;;;;;;;5548416;25;19997;-88
2024/04/14 01:46:43;;;;;;;6.78;2.08;;;;;;;;;;5548820;25;19995;-88
2024/04/14 01:49:10;;;;;;;7.75;1.85;;;;;;;;;;5569504;25;20044;-87
2024/04/14 01:51:36;;;;;;;6.13;1.70;;;;;;;;;;5569061;25;20342;-88
2024/04/14 01:54:20;;;;;;;6.07;2.22;;;;;;;;;;5574434;25;20312;-87
2024/04/14 01:56:46;;;;;;;9.45;1.50;;;;;;;;;;5569516;25;20457;-87
2024/04/14 01:59:12;;;;;;;6.65;1.65;;;;;;;;;;5602718;25;20008;-88
2024/04/14 02:01:38;;;;;;;9.10;1.90;;;;;;;;;;5569290;25;20000;-87
2024/04/14 02:04:05;;;;;;;10.43;2.28;;;;;;;;;;5569243;25;19999;-87
2024/04/14 02:06:31;;;;;;;9.57;1.80;;;;;;;;;;5568772;25;20361;-87
2024/04/14 02:08:57;;;;;;;9.43;2.03;;;;;;;;;;5602173;25;20011;-88
2024/04/14 02:11:23;;;;;;;6.75;1.67;;;;;;;;;;5602143;25;20426;-87
2024/04/14 02:13:49;;;;;;;7.70;2.50;;;;;;;;;;5569330;25;20018;-88
2024/04/14 02:16:16;;;;;;;8.77;1.50;;;;;;;;;;5568944;25;20000;-87
2024/04/14 02:18:42;;;;;;;10.80;1.80;;;;;;;;;;5568763;25;20338;-87
2024/04/14 02:21:08;;;;;;;8.95;2.47;;;;;;;;;;5569050;25;20330;-87
2024/04/14 02:23:37;;;;;;;9.18;2.10;;;;;;;;;;5568743;25;20007;-87
2024/04/14 02:26:21;;;;;;;6.70;1.35;;;;;;;;;;5602050;25;20012;-87
2024/04/14 02:28:47;;;;;;;9.38;1.80;;;;;;;;;;5601739;25;20000;-87
2024/04/14 02:31:13;;;;;;;8.43;2.20;;;;;;;;;;5568835;25;20323;-87
2024/04/14 02:33:41;;;;;;;8.15;1.80;;;;;;;;;;5568802;25;20014;-87
2024/04/14 02:36:07;;;;;;;9.90;1.90;;;;;;;;;;5602867;25;20007;-88
2024/04/14 02:38:33;;;;;;;10.90;1.90;;;;;;;;;;5605938;25;20008;-87
2024/04/14 02:41:00;;;;;;;8.05;2.17;;;;;;;;;;5572120;25;20000;-87
2024/04/14 02:43:26;;;;;;;11.80;2.10;;;;;;;;;;5605440;25;20363;-87
2024/04/14 02:46:11;;;;;;;;;;;;;;;;;;5606238;25;20000;-87
2024/04/14 02:48:57;;;;;;;11.05;1.70;;;;;;;;;;5577478;25;19950;-87
2024/04/14 02:51:44;;;;;;;10.63;2.20;;;;;;;;;;5551749;25;20394;-88
2024/04/14 02:54:30;;;;;;;9.43;1.70;;;;;;;;;;5577296;25;19996;-87
2024/04/14 02:56:57;;;;;;;12.23;1.85;;;;;;;;;;5571769;25;20015;-87
2024/04/14 02:59:43;;;;;;;9.45;1.85;;;;;;;;;;5577407;25;20011;-87
2024/04/14 03:02:09;;;;;;;12.85;2.00;;;;;;;;;;5571855;25;20450;-87
2024/04/14 03:04:35;;;;;;;12.88;2.10;;;;;;;;;;5572065;25;20040;-87
2024/04/14 03:07:02;;;;;;;11.20;2.00;;;;;;;;;;5571863;25;19999;-87
2024/04/14 03:09:29;;;;;;;10.10;2.20;;;;;;;;;;5572217;25;20007;-87
2024/04/14 03:12:15;;;;;;;10.52;1.70;;;;;;;;;;5551235;25;20033;-87
2024/04/14 03:14:41;;;;;;;11.77;2.08;;;;;;;;;;5570922;25;20133;-87
2024/04/14 03:17:27;;;;;;;9.57;1.45;;;;;;;;;;5551026;25;20349;-87
2024/04/14 03:20:14;;;;;;;12.48;2.97;;;;;;;;;;5551185;25;20004;-87
2024/04/14 03:23:00;;;;;;;10.55;1.88;;;;;;;;;;5550892;25;20469;-87
2024/04/14 03:25:46;;;;;;;7.82;1.45;;;;;;;;;;5577385;25;19996;-87
2024/04/14 03:28:32;;;;;;;7.65;2.30;;;;;;;;;;5551817;25;20004;-86
2024/04/14 03:31:19;;;;;;;9.05;2.65;;;;;;;;;;5576917;25;20072;-87
2024/04/14 03:34:05;;;;;;;9.57;2.25;;;;;;;;;;5549824;25;20000;-86
2024/04/14 03:36:51;;;;;;;13.95;2.38;;;;;;;;;;5576604;25;20450;-86
2024/04/14 03:39:37;;;;;;;12.30;2.15;;;;;;;;;;5550560;25;20015;-86
2024/04/14 03:42:23;;;;;;;11.70;2.58;;;;;;;;;;5576673;25;20079;-86
2024/04/14 03:45:11;;;;;;;13.00;2.30;;;;;;;;;;5576888;25;20010;-87
2024/04/14 03:47:57;;;;;;;8.48;2.00;;;;;;;;;;5549904;25;20012;-87
2024/04/14 03:50:45;;;;;;;10.45;2.00;;;;;;;;;;5576934;25;20004;-87
2024/04/14 03:53:32;;;;;;;9.55;3.05;;;;;;;;;;5550852;25;20011;-87
2024/04/14 03:56:18;;;;;;;8.13;2.00;;;;;;;;;;5576405;25;20330;-87
2024/04/14 03:59:06;;;;;;;10.38;2.13;;;;;;;;;;5576990;25;20008;-86
2024/04/14 04:01:52;;;;;;;11.48;2.70;;;;;;;;;;5550705;25;20074;-87
2024/04/14 04:04:38;;;;;;;9.55;2.20;;;;;;;;;;5576844;25;19996;-87
2024/04/14 04:07:24;;;;;;;8.70;2.05;;;;;;;;;;5576489;25;19996;-87
2024/04/14 04:10:10;;;;;;;7.82;1.95;;;;;;;;;;5549531;25;20453;-87
2024/04/14 04:12:56;;;;;;;10.38;2.22;;;;;;;;;;5549966;25;20071;-92
2024/04/14 04:15:42;;;;;;;8.07;2.00;;;;;;;;;;5549350;25;20011;-93
2024/04/14 04:18:28;;;;;;;12.68;2.10;;;;;;;;;;5550012;25;20045;-87
2024/04/14 04:21:14;;;;;;;11.07;2.45;;;;;;;;;;5550076;25;19997;-87
2024/04/14 04:24:00;;;;;;;8.75;2.15;;;;;;;;;;5550338;25;19997;-88
2024/04/14 04:26:46;;;;;;;7.60;2.20;;;;;;;;;;5550214;25;20360;-87
2024/04/14 04:29:33;;;;;;;16.17;2.80;;;;;;;;;;5550670;25;20011;-86
2024/04/14 04:32:19;;;;;;;7.55;1.60;;;;;;;;;;5575495;25;20003;-86
2024/04/14 04:34:46;;;;;;;8.30;2.15;;;;;;;;;;5604272;25;20070;-87
2024/04/14 04:37:14;;;;;;;9.48;1.65;;;;;;;;;;5570363;25;20004;-87
2024/04/14 04:39:40;;;;;;;9.35;1.73;;;;;;;;;;5603744;25;20011;-87
2024/04/14 04:42:06;;;;;;;11.60;2.17;;;;;;;;;;5570486;25;20000;-87
2024/04/14 04:44:32;;;;;;;8.45;1.63;;;;;;;;;;5570340;25;20000;-87
2024/04/14 04:46:58;;;;;;;8.05;1.67;;;;;;;;;;5603407;25;20338;-87
2024/04/14 04:49:24;;;;;;;9.45;1.65;;;;;;;;;;5603667;25;20048;-87
2024/04/14 04:51:51;;;;;;;8.93;1.42;;;;;;;;;;5570335;25;20075;-87
2024/04/14 04:54:18;;;;;;;10.02;1.95;;;;;;;;;;5570358;25;20032;-87
2024/04/14 04:56:44;;;;;;;9.18;2.30;;;;;;;;;;5570497;25;20015;-87
2024/04/14 04:59:10;;;;;;;8.45;2.20;;;;;;;;;;5569113;25;20071;-87
2024/04/14 05:01:36;;;;;;;8.88;2.42;;;;;;;;;;5603638;25;20008;-87
2024/04/14 05:04:02;;;;;;;13.00;2.42;;;;;;;;;;5569367;25;20003;-87
2024/04/14 05:06:28;;;;;;;8.93;1.80;;;;;;;;;;5603259;25;20459;-87
2024/04/14 05:08:54;;;;;;;8.68;1.77;;;;;;;;;;5603202;25;20071;-88
2024/04/14 05:11:20;;;;;;;11.07;1.70;;;;;;;;;;5569966;25;20337;-87
2024/04/14 05:13:46;;;;;;;8.95;1.50;;;;;;;;;;5569913;25;20457;-87
2024/04/14 05:16:13;;;;;;;10.05;3.80;;;;;;;;;;5603808;25;20032;-87
2024/04/14 05:18:39;;;;;;;6.53;1.45;;;;;;;;;;5570033;25;20011;-87
2024/04/14 05:21:05;;;;;;;7.45;1.48;;;;;;;;;;5603093;25;20071;-87
2024/04/14 05:23:31;;;;;;;10.50;2.20;;;;;;;;;;5569592;25;20509;-87
2024/04/14 05:26:00;;;;;;;8.98;1.38;;;;;;;;;;5603069;25;20000;-87
2024/04/14 05:28:26;;;;;;;9.82;1.83;;;;;;;;;;5570206;25;20386;-87
2024/04/14 05:30:52;;;;;;;11.20;2.25;;;;;;;;;;5603069;25;20076;-87
2024/04/14 05:33:18;;;;;;;8.05;1.63;;;;;;;;;;5602986;25;20132;-87
2024/04/14 05:35:54;;;;;;;11.20;1.95;;;;;;;;;;5569673;25;19999;-87
2024/04/14 05:38:21;;;;;;;8.25;1.35;;;;;;;;;;5569460;25;20062;-88
2024/04/14 05:40:47;;;;;;;9.48;1.30;;;;;;;;;;5569662;25;20000;-87
2024/04/14 05:43:13;;;;;;;9.48;1.70;;;;;;;;;;5569677;25;20011;-88
2024/04/14 05:45:39;;;;;;;6.28;1.40;;;;;;;;;;5602804;25;20000;-87
2024/04/14 05:48:05;;;;;;;8.15;1.55;;;;;;;;;;5569637;25;20011;-87
2024/04/14 05:50:31;;;;;;;8.55;1.50;;;;;;;;;;5602771;25;20000;-87
2024/04/14 05:52:57;;;;;;;7.57;1.30;;;;;;;;;;5602411;25;20000;-87
2024/04/14 05:55:24;;;;;;;11.18;2.28;;;;;;;;;;5569618;25;20709;-87
2024/04/14 05:57:50;;;;;;;9.52;1.70;;;;;;;;;;5569571;25;20000;-87
2024/04/14 06:00:17;;;;;;;9.02;1.98;;;;;;;;;;5569225;25;20010;-87
2024/04/14 06:02:43;;;;;;;9.40;1.90;;;;;;;;;;5569589;25;20014;-87
2024/04/14 06:05:09;;;;;;;5.88;1.60;;;;;;;;;;5602485;25;20012;-87
2024/04/14 06:07:35;;;;;;;9.15;1.88;;;;;;;;;;5569186;25;20045;-88
2024/04/14 06:10:01;;;;;;;8.95;1.45;;;;;;;;;;5602082;25;20422;-87
2024/04/14 06:12:27;;;;;;;10.27;1.77;;;;;;;;;;5569112;25;20330;-87
2024/04/14 06:14:53;;;;;;;9.10;1.85;;;;;;;;;;5569013;25;20039;-88
2024/04/14 06:17:20;;;;;;;10.90;2.10;;;;;;;;;;5602308;25;20342;-87
2024/04/14 06:19:46;;;;;;;7.93;1.92;;;;;;;;;;5602187;25;19999;-88
2024/04/14 06:22:12;;;;;;;9.50;1.42;;;;;;;;;;5568905;25;20338;-88
2024/04/14 06:24:38;;;;;;;8.55;1.45;;;;;;;;;;5602002;25;20007;-88
2024/04/14 06:27:04;;;;;;;7.13;1.80;;;;;;;;;;5568649;25;20003;-88
2024/04/14 06:29:33;;;;;;;7.50;2.00;;;;;;;;;;5602345;25;20007;-88
2024/04/14 06:31:59;;;;;;;8.50;2.45;;;;;;;;;;5568711;25;20528;-88
2024/04/14 06:34:25;;;;;;;6.20;2.13;;;;;;;;;;5569150;25;20000;-88
2024/04/14 06:36:52;;;;;;;9.25;2.10;;;;;;;;;;5601878;25;20000;-88
2024/04/14 06:39:18;;;;;;;7.07;1.70;;;;;;;;;;5568521;25;20008;-88
2024/04/14 06:41:44;;;;;;;10.95;2.42;;;;;;;;;;5568746;25;20016;-88
2024/04/14 06:44:10;;;;;;;5.13;1.35;;;;;;;;;;5568559;25;20338;-88
2024/04/14 06:46:36;;;;;;;8.07;1.73;;;;;;;;;;5568439;25;20007;-88
2024/04/14 06:49:02;;;;;;;7.00;1.55;;;;;;;;;;5601755;25;20071;-88
2024/04/14 06:51:28;;;;;;;5.55;1.65;;;;;;;;;;5568583;25;20000;-88
2024/04/14 06:53:56;;;;;;;7.63;1.60;;;;;;;;;;5568326;25;20359;-88
2024/04/14 06:56:23;;;;;;;8.50;2.22;;;;;;;;;;5568568;25;19996;-88
2024/04/14 06:58:49;;;;;;;8.98;1.17;;;;;;;;;;5601921;25;20366;-88
2024/04/14 07:01:15;;;;;;;5.75;1.10;;;;;;;;;;5601514;25;20011;-88
2024/04/14 07:03:41;;;;;;;9.85;1.60;;;;;;;;;;5567961;25;20322;-88
2024/04/14 07:06:07;;;;;;;8.13;1.80;;;;;;;;;;5568311;25;20024;-88
2024/04/14 07:08:33;;;;;;;6.35;1.58;;;;;;;;;;5568237;25;20072;-88
2024/04/14 07:11:00;;;;;;;7.20;1.40;;;;;;;;;;5567920;25;20011;-88
2024/04/14 07:13:26;;;;;;;6.18;1.33;;;;;;;;;;5567967;25;20007;-88
2024/04/14 07:15:52;;;;;;;6.90;1.30;;;;;;;;;;5601317;25;20031;-88
2024/04/14 07:18:18;;;;;;;4.78;1.30;;;;;;;;;;5568209;25;20010;-87
2024/04/14 07:20:44;;;;;;;8.13;1.45;;;;;;;;;;5600977;25;20095;-88
2024/04/14 07:23:11;;;;;;;5.25;1.45;;;;;;;;;;5570357;25;20008;-88
2024/04/14 07:25:37;;;;;;;8.93;1.90;;;;;;;;;;5571745;25;20067;-88
2024/04/14 07:28:03;;;;;;;6.40;1.30;;;;;;;;;;5571699;25;20011;-88
2024/04/14 07:30:29;;;;;;;5.53;1.40;;;;;;;;;;5604789;25;20000;-88
2024/04/14 07:32:55;;;;;;;7.05;1.38;;;;;;;;;;5571396;25;20348;-88
2024/04/14 07:35:21;;;;;;;5.88;1.63;;;;;;;;;;5571314;25;20004;-88
2024/04/14 07:37:47;;;;;;;4.82;1.67;;;;;;;;;;5571508;25;20007;-88
2024/04/14 07:40:19;;;;;;;8.43;1.50;;;;;;;;;;5604606;25;20360;-88
2024/04/14 07:43:07;;;;;;;8.23;1.60;;;;;;;;;;5569645;25;20433;-88
2024/04/14 07:45:33;;;;;;;5.28;1.13;;;;;;;;;;5605257;25;20027;-88
2024/04/14 07:47:59;;;;;;;8.05;1.30;;;;;;;;;;5604927;25;20008;-88
2024/04/14 07:50:25;;;;;;;6.03;1.63;;;;;;;;;;5604581;25;20000;-88
2024/04/14 07:52:51;;;;;;;7.40;1.42;;;;;;;;;;5604826;25;20040;-88
2024/04/14 07:55:17;;;;;;;7.78;1.00;;;;;;;;;;5571244;25;20032;-88
2024/04/14 07:57:47;;;;;;;6.35;1.60;;;;;;;;;;5571338;25;20028;-88
2024/04/14 08:00:17;;;;;;;7.28;1.52;;;;;;;;;;5604723;25;20008;-88
2024/04/14 08:02:44;;;;;;;6.25;1.67;;;;;;;;;;5604346;25;20011;-88
2024/04/14 08:05:10;;;;;;;6.40;1.60;;;;;;;;;;5604855;25;20000;-87
2024/04/14 08:07:36;;;;;;;5.07;1.38;;;;;;;;;;5570731;25;20357;-88
2024/04/14 08:10:02;;;;;;;8.93;1.50;;;;;;;;;;5604296;25;20000;-88
2024/04/14 08:12:29;;;;;;;7.10;1.58;;;;;;;;;;5604328;25;20020;-88
2024/04/14 08:14:55;;;;;;;6.53;1.63;;;;;;;;;;5604238;25;20008;-88
2024/04/14 08:17:21;;;;;;;6.22;1.27;;;;;;;;;;5570854;25;20383;-88
2024/04/14 08:19:47;;;;;;;5.95;1.27;;;;;;;;;;5570978;25;20000;-88
2024/04/14 08:22:13;;;;;;;5.10;1.55;;;;;;;;;;5571160;25;20012;-88
2024/04/14 08:24:39;;;;;;;6.95;1.20;;;;;;;;;;5570814;25;20028;-88
2024/04/14 08:27:05;;;;;;;5.45;1.25;;;;;;;;;;5604258;25;20032;-88
2024/04/14 08:29:31;;;;;;;6.70;1.50;;;;;;;;;;5570664;25;20079;-88
2024/04/14 08:31:59;;;;;;;4.10;0.90;;;;;;;;;;5571140;25;20349;-89
2024/04/14 08:34:25;;;;;;;3.53;1.00;;;;;;;;;;5602731;25;20000;-88
2024/04/14 08:36:51;;;;;;;9.40;2.00;;;;;;;;;;5603593;25;20146;-88
2024/04/14 08:39:17;;;;;;;5.40;1.58;;;;;;;;;;5570525;25;19999;-88
2024/04/14 08:41:44;;;;;;;7.55;1.70;;;;;;;;;;5570434;25;20354;-88
2024/04/14 08:44:11;;;;;;;6.00;1.50;;;;;;;;;;5571554;25;20004;-87
2024/04/14 08:46:37;;;;;;;7.25;1.58;;;;;;;;;;5606597;25;20000;-87
2024/04/14 08:49:03;;;;;;;9.18;2.10;;;;;;;;;;5571947;25;20007;-87
2024/04/14 08:51:30;;;;;;;5.15;1.23;;;;;;;;;;5571000;25;20450;-88
2024/04/14 08:53:57;;;;;;;6.55;1.50;;;;;;;;;;5570923;25;20012;-88
2024/04/14 08:56:24;;;;;;;6.50;1.35;;;;;;;;;;5571620;25;20008;-88
2024/04/14 08:58:54;;;;;;;8.18;1.63;;;;;;;;;;5571320;25;20000;-88
2024/04/14 09:01:20;;;;;;;6.20;1.10;;;;;;;;;;5571995;25;20007;-87
2024/04/14 09:03:48;;;;;;;5.47;1.40;;;;;;;;;;5571352;25;20036;-87
2024/04/14 09:06:14;;;;;;;8.40;1.38;;;;;;;;;;5603654;25;20010;-88
2024/04/14 09:08:40;;;;;;;5.70;1.30;;;;;;;;;;5570247;25;20458;-88
2024/04/14 09:11:07;;;;;;;6.22;1.55;;;;;;;;;;5570738;25;20000;-88
2024/04/14 09:13:34;;;;;;;6.68;1.25;;;;;;;;;;5570766;25;19996;-87
2024/04/14 09:16:00;;;;;;;8.13;1.52;;;;;;;;;;5570716;25;20070;-87
2024/04/14 09:18:26;;;;;;;4.32;1.40;;;;;;;;;;5569474;25;20000;-87
2024/04/14 09:20:52;;;;;;;4.63;0.90;;;;;;;;;;5569255;25;19999;-87
2024/04/14 09:23:18;;;;;;;6.40;1.30;;;;;;;;;;5569873;25;20000;-88
2024/04/14 09:25:44;;;;;;;7.32;1.50;;;;;;;;;;5603698;25;20011;-88
2024/04/14 09:28:11;;;;;;;6.03;1.48;;;;;;;;;;5569920;25;20426;-87
2024/04/14 09:30:38;;;;;;;5.43;1.50;;;;;;;;;;5570280;25;20000;-88
2024/04/14 09:33:05;;;;;;;6.03;1.30;;;;;;;;;;5570000;25;20011;-88
2024/04/14 09:35:31;;;;;;;11.82;1.60;;;;;;;;;;5569770;25;20566;-88
2024/04/14 09:37:58;;;;;;;5.30;1.27;;;;;;;;;;5569528;25;20450;-88
2024/04/14 09:40:25;;;;;;;6.32;1.60;;;;;;;;;;5602967;25;20017;-87
2024/04/14 09:42:57;;;;;;;5.60;1.20;;;;;;;;;;5569474;25;19996;-87
2024/04/14 09:45:25;;;;;;;7.97;1.42;;;;;;;;;;5569156;25;20000;-88
2024/04/14 09:47:52;;;;;;;4.10;1.17;;;;;;;;;;5569251;25;20011;-88
2024/04/14 09:50:21;;;;;;;6.72;1.30;;;;;;;;;;5569465;25;20024;-87
2024/04/14 09:52:50;;;;;;;8.65;1.52;;;;;;;;;;5569593;25;20071;-88
2024/04/14 09:55:17;;;;;;;5.25;1.50;;;;;;;;;;5569452;25;20031;-88
2024/04/14 09:57:43;;;;;;;5.78;1.33;;;;;;;;;;5569380;25;20024;-88
2024/04/14 10:00:10;;;;;;;4.85;1.40;;;;;;;;;;5602668;25;20008;-88
2024/04/14 10:02:52;;;;;;;7.20;1.88;;;;;;;;;;5569389;25;20000;-88
2024/04/14 10:05:19;;;;;;;9.25;1.70;;;;;;;;;;5569702;25;20043;-88
2024/04/14 10:07:46;;;;;;;6.07;1.38;;;;;;;;;;5602510;25;20015;-88
2024/04/14 10:10:12;;;;;;;5.47;1.52;;;;;;;;;;5568677;25;20040;-87
2024/04/14 10:12:38;;;;;;;6.35;1.52;;;;;;;;;;5569524;25;20000;-88
2024/04/14 10:15:06;;;;;;;6.43;2.13;;;;;;;;;;5569414;25;20390;-88
2024/04/14 10:17:33;;;;;;;9.15;1.83;;;;;;;;;;5569526;25;20011;-88
2024/04/14 10:20:11;;;;;;;6.30;1.65;;;;;;;;;;5569040;25;20044;-88
2024/04/14 10:22:39;;;;;;;9.63;2.30;;;;;;;;;;5569130;25;20024;-88
2024/04/14 10:25:06;;;;;;;7.60;1.58;;;;;;;;;;5569287;25;20011;-88
2024/04/14 10:27:35;;;;;;;6.95;1.60;;;;;;;;;;5568755;25;20342;-88
2024/04/14 10:30:03;;;;;;;5.00;1.20;;;;;;;;;;5568908;25;20052;-88
2024/04/14 10:32:30;;;;;;;6.28;1.70;;;;;;;;;;5568821;25;20141;-87
2024/04/14 10:34:56;;;;;;;3.72;0.93;;;;;;;;;;5567921;25;20012;-88
2024/04/14 10:37:26;;;;;;;4.38;1.80;;;;;;;;;;5568705;25;20008;-88
2024/04/14 10:39:53;;;;;;;3.63;1.13;;;;;;;;;;5569118;25;20008;-88
2024/04/14 10:42:23;;;;;;;4.20;1.38;;;;;;;;;;5568527;25;20011;-87
2024/04/14 10:44:49;;;;;;;5.00;0.98;;;;;;;;;;5568886;25;20010;-87
2024/04/14 10:47:19;;;;;;;4.60;1.08;;;;;;;;;;5601851;25;20446;-87
2024/04/14 10:49:47;;;;;;;4.55;1.10;;;;;;;;;;5601726;25;20000;-87
2024/04/14 10:52:13;;;;;;;3.63;0.70;;;;;;;;;;5600949;25;20000;-87
2024/04/14 10:54:40;;;;;;;4.97;1.00;;;;;;;;;;5601232;25;20345;-87
2024/04/14 10:57:08;;;;;;;9.40;1.50;;;;;;;;;;5601794;25;20004;-86
2024/04/14 10:59:34;;;;;;;5.90;1.95;;;;;;;;;;5604654;25;20012;-86
2024/04/14 11:02:02;;;;;;;8.38;1.65;;;;;;;;;;5571511;25;19996;-86
2024/04/14 11:04:29;;;;;;;7.35;1.38;;;;;;;;;;5604683;25;20032;-86
2024/04/14 11:06:55;;;;;;;6.65;1.08;;;;;;;;;;5604427;25;20032;-87
2024/04/14 11:09:22;;;;;;;5.35;1.48;;;;;;;;;;5570963;25;20014;-87
2024/04/14 11:11:49;;;;;;;5.97;1.40;;;;;;;;;;5604641;25;20036;-86
2024/04/14 11:14:20;;;;;;;7.10;1.02;;;;;;;;;;5604847;25;20011;-86
2024/04/14 11:16:46;;;;;;;7.97;1.25;;;;;;;;;;5604771;25;20326;-86
2024/04/14 11:19:13;;;;;;;8.07;1.55;;;;;;;;;;5604643;25;20007;-86
2024/04/14 11:21:39;;;;;;;5.80;1.30;;;;;;;;;;5604461;25;20010;-86
2024/04/14 11:24:09;;;;;;;6.57;1.35;;;;;;;;;;5604942;25;20010;-86
2024/04/14 11:26:35;;;;;;;4.68;1.10;;;;;;;;;;5604979;25;20007;-87
2024/04/14 11:29:01;;;;;;;8.48;1.52;;;;;;;;;;5605165;25;20000;-86
2024/04/14 11:31:28;;;;;;;8.43;1.45;;;;;;;;;;5604757;25;20015;-87
2024/04/14 11:33:55;;;;;;;4.88;1.10;;;;;;;;;;5571435;25;20474;-87
2024/04/14 11:36:21;;;;;;;7.28;1.83;;;;;;;;;;5605174;25;20000;-87
2024/04/14 11:38:48;;;;;;;5.35;1.48;;;;;;;;;;5571557;25;20325;-86
2024/04/14 11:41:14;;;;;;;6.75;1.23;;;;;;;;;;5604865;25;20319;-86
2024/04/14 11:43:41;;;;;;;8.90;1.20;;;;;;;;;;5605050;25;20000;-86
2024/04/14 11:46:07;;;;;;;6.03;1.00;;;;;;;;;;5604765;25;20039;-86
2024/04/14 11:48:33;;;;;;;6.18;1.27;;;;;;;;;;5604913;25;20000;-86
2024/04/14 11:50:59;;;;;;;5.75;0.80;;;;;;;;;;5604631;25;20000;-87
2024/04/14 11:53:25;;;;;;;4.90;1.20;;;;;;;;;;5604435;25;19999;-86
2024/04/14 11:55:51;;;;;;;7.00;1.05;;;;;;;;;;5604628;25;20000;-86
2024/04/14 11:58:22;;;;;;;7.22;1.38;;;;;;;;;;5604492;25;20009;-86
2024/04/14 12:00:48;;;;;;;5.30;1.17;;;;;;;;;;5571208;25;20013;-87
2024/04/14 12:03:15;;;;;;;4.95;1.33;;;;;;;;;;5604290;25;20023;-86
2024/04/14 12:05:41;;;;;;;6.25;1.30;;;;;;;;;;5604374;25;20007;-86
2024/04/14 12:08:07;;;;;;;4.93;1.40;;;;;;;;;;5604146;25;20000;-87
2024/04/14 12:10:33;;;;;;;6.53;1.58;;;;;;;;;;5604230;25;20030;-86
2024/04/14 12:12:59;;;;;;;7.10;1.55;;;;;;;;;;5604297;25;20342;-87
2024/04/14 12:15:25;;;;;;;5.47;1.17;;;;;;;;;;5570916;25;20010;-86
2024/04/14 12:17:51;;;;;;;6.32;1.50;;;;;;;;;;5604135;25;20000;-87
2024/04/14 12:20:18;;;;;;;6.25;1.70;;;;;;;;;;5604425;25;20027;-87
2024/04/14 12:22:44;;;;;;;7.97;1.70;;;;;;;;;;5570831;25;20000;-87
2024/04/14 12:25:10;;;;;;;7.40;1.65;;;;;;;;;;5604047;25;20398;-86
2024/04/14 12:27:36;;;;;;;7.35;1.50;;;;;;;;;;5603911;25;20015;-87
2024/04/14 12:30:02;;;;;;;4.60;1.35;;;;;;;;;;5603953;25;20012;-87
2024/04/14 12:32:28;;;;;;;8.30;1.73;;;;;;;;;;5603943;25;20010;-87
2024/04/14 12:34:54;;;;;;;7.03;1.20;;;;;;;;;;5603933;25;20059;-86
2024/04/14 12:37:20;;;;;;;5.43;1.25;;;;;;;;;;5569943;25;20062;-87
2024/04/14 12:39:47;;;;;;;6.57;1.38;;;;;;;;;;5570388;25;20008;-87
2024/04/14 12:42:13;;;;;;;6.32;1.50;;;;;;;;;;5603906;25;20000;-86
2024/04/14 12:44:39;;;;;;;4.82;1.63;;;;;;;;;;5603973;25;20008;-86
2024/04/14 12:47:05;;;;;;;4.57;1.02;;;;;;;;;;5603361;25;20203;-86
2024/04/14 12:49:31;;;;;;;7.20;1.38;;;;;;;;;;5603197;25;20028;-86
2024/04/14 12:51:58;;;;;;;5.72;1.50;;;;;;;;;;5603331;25;20028;-86
2024/04/14 12:54:24;;;;;;;6.18;1.00;;;;;;;;;;5569902;25;20066;-86
2024/04/14 12:56:51;;;;;;;5.35;1.48;;;;;;;;;;5569617;25;19996;-86
2024/04/14 12:59:17;;;;;;;7.18;1.17;;;;;;;;;;5602751;25;20000;-86
2024/04/14 13:01:43;;;;;;;5.90;1.05;;;;;;;;;;5603573;25;20000;-86
2024/04/14 13:04:10;;;;;;;4.43;1.13;;;;;;;;;;5569535;25;20482;-86
2024/04/14 13:06:36;;;;;;;8.43;1.08;;;;;;;;;;5603452;25;20027;-86
2024/04/14 13:09:03;;;;;;;4.90;1.30;;;;;;;;;;5603774;25;20019;-86
2024/04/14 13:11:29;;;;;;;4.75;0.90;;;;;;;;;;5603492;25;20000;-87
2024/04/14 13:13:55;;;;;;;4.78;1.60;;;;;;;;;;5603275;25;20031;-87
2024/04/14 13:16:21;;;;;;;7.70;1.58;;;;;;;;;;5570003;25;19999;-86
2024/04/14 13:18:47;;;;;;;4.95;0.90;;;;;;;;;;5569965;25;20000;-86
2024/04/14 13:21:17;;;;;;;4.43;1.10;;;;;;;;;;5601952;25;20000;-86
2024/04/14 13:23:47;;;;;;;3.55;0.80;;;;;;;;;;5570179;25;20435;-86
2024/04/14 13:26:16;;;;;;;3.72;1.30;;;;;;;;;;5603267;25;20010;-86
2024/04/14 13:28:42;;;;;;;6.93;1.38;;;;;;;;;;5603330;25;20000;-86
2024/04/14 13:31:09;;;;;;;4.15;1.40;;;;;;;;;;5603458;25;20000;-86
2024/04/14 13:33:35;;;;;;;4.78;1.15;;;;;;;;;;5569702;25;20008;-86
2024/04/14 13:36:04;;;;;;;5.00;1.13;;;;;;;;;;5603171;25;20011;-86
2024/04/14 13:38:30;;;;;;;5.65;1.30;;;;;;;;;;5602840;25;20067;-86
2024/04/14 13:40:57;;;;;;;6.32;1.60;;;;;;;;;;5569518;25;20037;-86
2024/04/14 13:43:23;;;;;;;4.60;1.25;;;;;;;;;;5603003;25;19999;-86
2024/04/14 13:45:49;;;;;;;5.30;1.00;;;;;;;;;;5569573;25;19999;-86
2024/04/14 13:48:15;;;;;;;5.07;1.38;;;;;;;;;;5603165;25;20006;-86
2024/04/14 13:50:41;;;;;;;3.83;0.90;;;;;;;;;;5602843;25;20011;-86
2024/04/14 13:53:08;;;;;;;4.22;1.00;;;;;;;;;;5569436;25;20008;-86
2024/04/14 13:55:34;;;;;;;4.82;0.90;;;;;;;;;;5603018;25;20000;-86
2024/04/14 13:58:00;;;;;;;2.67;1.17;;;;;;;;;;5602669;25;20000;-86
2024/04/14 14:00:27;;;;;;;3.60;1.13;;;;;;;;;;5569411;25;20517;-86
2024/04/14 14:02:53;;;;;;;3.63;0.90;;;;;;;;;;5602548;25;20071;-86
2024/04/14 14:05:20;;;;;;;5.15;1.05;;;;;;;;;;5602546;25;20363;-86
2024/04/14 14:07:47;;;;;;;7.30;1.95;;;;;;;;;;5602442;25;20464;-86
2024/04/14 14:10:14;;;;;;;4.57;1.15;;;;;;;;;;5568998;25;20015;-86
2024/04/14 14:12:40;;;;;;;2.45;0.88;;;;;;;;;;5569184;25;20450;-86
2024/04/14 14:15:06;;;;;;;5.13;1.40;;;;;;;;;;5569033;25;20071;-86
2024/04/14 14:17:32;;;;;;;4.32;0.93;;;;;;;;;;5602408;25;20487;-86
2024/04/14 14:19:58;;;;;;;4.65;1.00;;;;;;;;;;5568992;25;20012;-86
2024/04/14 14:22:24;;;;;;;2.72;0.60;;;;;;;;;;5602163;25;20012;-86
2024/04/14 14:24:50;;;;;;;3.42;0.57;;;;;;;;;;5602256;25;20028;-86
2024/04/14 14:27:16;;;;;;;4.50;1.35;;;;;;;;;;5602454;25;20000;-86
2024/04/14 14:29:42;;;;;;;4.05;0.88;;;;;;;;;;5602458;25;20007;-86
2024/04/14 14:32:08;;;;;;;3.63;0.75;;;;;;;;;;5602131;25;20073;-86
2024/04/14 14:37:20;;;;;;;2.97;0.60;;;;;;;;;;5601949;25;20008;-86
2024/04/14 14:39:46;;;;;;;3.20;0.70;;;;;;;;;;5568868;25;20000;-86
2024/04/14 14:42:12;;;;;;;3.63;0.70;;;;;;;;;;5601879;25;20075;-86
2024/04/14 14:44:38;;;;;;;6.35;1.00;;;;;;;;;;5601862;25;20011;-86
2024/04/14 14:47:04;;;;;;;5.20;1.17;;;;;;;;;;5601834;25;20000;-86
2024/04/14 14:49:30;;;;;;;5.32;1.35;;;;;;;;;;5568571;25;20011;-86
2024/04/14 14:51:56;;;;;;;5.38;1.13;;;;;;;;;;5601946;25;20008;-86